sensor_id;sensor_type;location;lat;lon;timestamp;pressure;altitude;pressure_sealevel;temperature;humidity
70254;BME280;57649;42.968;1.608;2023-09-07T00:00:29;97220.13;;;20.58;98.36
70254;BME280;57649;42.968;1.608;2023-09-07T00:02:55;97230.06;;;20.41;98.82
70254;BME280;57649;42.968;1.608;2023-09-07T00:05:20;97229.22;;;20.40;98.14
70254;BME280;57649;42.968;1.608;2023-09-07T00:07:46;97226.81;;;20.08;100.00
70254;BME280;57649;42.968;1.608;2023-09-07T00:10:11;97218.44;;;20.10;100.00
70254;BME280;57649;42.968;1.608;2023-09-07T00:12:38;97226.81;;;20.08;100.00
70254;BME280;57649;42.968;1.608;2023-09-07T00:15:05;97228.44;;;20.09;100.00
70254;BME280;57649;42.968;1.608;2023-09-07T00:17:31;97221.69;;;20.00;100.00
70254;BME280;57649;42.968;1.608;2023-09-07T00:19:57;97226.44;;;19.93;100.00
70254;BME280;57649;42.968;1.608;2023-09-07T00:22:23;97227.53;;;19.73;100.00
70254;BME280;57649;42.968;1.608;2023-09-07T00:24:50;97232.03;;;19.79;100.00
70254;BME280;57649;42.968;1.608;2023-09-07T00:27:16;97227.47;;;19.92;100.00
70254;BME280;57649;42.968;1.608;2023-09-07T00:29:41;97231.81;;;19.81;100.00
70254;BME280;57649;42.968;1.608;2023-09-07T00:32:07;97223.31;;;19.77;100.00
70254;BME280;57649;42.968;1.608;2023-09-07T00:34:33;97219.16;;;19.75;100.00
70254;BME280;57649;42.968;1.608;2023-09-07T00:37:00;97224.63;;;19.87;100.00
70254;BME280;57649;42.968;1.608;2023-09-07T00:39:25;97219.56;;;19.90;100.00
70254;BME280;57649;42.968;1.608;2023-09-07T00:41:51;97223.44;;;19.83;98.46
70254;BME280;57649;42.968;1.608;2023-09-07T00:44:16;97221.84;;;19.45;98.08
70254;BME280;57649;42.968;1.608;2023-09-07T00:46:42;97225.03;;;19.23;99.34
70254;BME280;57649;42.968;1.608;2023-09-07T00:49:11;97214.19;;;19.23;98.51
70254;BME280;57649;42.968;1.608;2023-09-07T00:51:37;97211.56;;;19.16;97.96
70254;BME280;57649;42.968;1.608;2023-09-07T00:54:02;97211.03;;;19.08;98.24
70254;BME280;57649;42.968;1.608;2023-09-07T00:56:28;97204.47;;;19.15;96.94
70254;BME280;57649;42.968;1.608;2023-09-07T00:58:54;97206.38;;;19.15;97.22
70254;BME280;57649;42.968;1.608;2023-09-07T01:01:22;97207.50;;;19.26;97.40
70254;BME280;57649;42.968;1.608;2023-09-07T01:03:49;97207.53;;;19.37;96.82
70254;BME280;57649;42.968;1.608;2023-09-07T01:06:22;97209.94;;;19.46;95.37
70254;BME280;57649;42.968;1.608;2023-09-07T01:08:54;97202.97;;;19.50;94.70
70254;BME280;57649;42.968;1.608;2023-09-07T01:11:22;97208.56;;;19.55;96.25
70254;BME280;57649;42.968;1.608;2023-09-07T01:13:50;97201.31;;;19.49;97.28
70254;BME280;57649;42.968;1.608;2023-09-07T01:16:17;97203.44;;;19.47;98.19
70254;BME280;57649;42.968;1.608;2023-09-07T01:18:45;97214.66;;;19.50;99.50
70254;BME280;57649;42.968;1.608;2023-09-07T01:21:11;97210.78;;;19.28;98.18
70254;BME280;57649;42.968;1.608;2023-09-07T01:23:39;97206.16;;;19.16;97.62
70254;BME280;57649;42.968;1.608;2023-09-07T01:26:07;97209.63;;;18.87;99.18
70254;BME280;57649;42.968;1.608;2023-09-07T01:28:34;97210.88;;;18.84;100.00
70254;BME280;57649;42.968;1.608;2023-09-07T01:31:00;97213.00;;;18.82;100.00
70254;BME280;57649;42.968;1.608;2023-09-07T01:33:26;97214.16;;;18.67;100.00
70254;BME280;57649;42.968;1.608;2023-09-07T01:35:52;97205.50;;;18.77;100.00
70254;BME280;57649;42.968;1.608;2023-09-07T01:38:18;97217.59;;;18.81;100.00
70254;BME280;57649;42.968;1.608;2023-09-07T01:40:43;97213.63;;;18.77;100.00
70254;BME280;57649;42.968;1.608;2023-09-07T01:43:08;97210.06;;;18.83;99.59
70254;BME280;57649;42.968;1.608;2023-09-07T01:45:34;97212.59;;;18.78;99.45
70254;BME280;57649;42.968;1.608;2023-09-07T01:47:59;97229.16;;;18.70;100.00
70254;BME280;57649;42.968;1.608;2023-09-07T01:50:25;97223.97;;;18.69;100.00
70254;BME280;57649;42.968;1.608;2023-09-07T01:52:53;97226.50;;;18.63;100.00
70254;BME280;57649;42.968;1.608;2023-09-07T01:55:19;97213.69;;;18.52;100.00
70254;BME280;57649;42.968;1.608;2023-09-07T01:57:44;97227.03;;;18.54;100.00
70254;BME280;57649;42.968;1.608;2023-09-07T02:00:11;97226.56;;;18.57;100.00
70254;BME280;57649;42.968;1.608;2023-09-07T02:02:36;97225.16;;;18.54;100.00
70254;BME280;57649;42.968;1.608;2023-09-07T02:05:03;97223.25;;;18.55;100.00
70254;BME280;57649;42.968;1.608;2023-09-07T02:07:29;97224.75;;;18.51;100.00
70254;BME280;57649;42.968;1.608;2023-09-07T02:09:54;97225.16;;;18.54;100.00
70254;BME280;57649;42.968;1.608;2023-09-07T02:12:20;97227.06;;;18.28;100.00
70254;BME280;57649;42.968;1.608;2023-09-07T02:14:45;97220.28;;;18.13;100.00
70254;BME280;57649;42.968;1.608;2023-09-07T02:17:11;97216.88;;;17.99;100.00
70254;BME280;57649;42.968;1.608;2023-09-07T02:19:39;97219.91;;;18.09;100.00
70254;BME280;57649;42.968;1.608;2023-09-07T02:22:04;97219.66;;;18.17;100.00
70254;BME280;57649;42.968;1.608;2023-09-07T02:24:30;97218.41;;;18.13;100.00
70254;BME280;57649;42.968;1.608;2023-09-07T02:26:55;97221.13;;;18.13;100.00
70254;BME280;57649;42.968;1.608;2023-09-07T02:29:20;97219.78;;;18.22;100.00
70254;BME280;57649;42.968;1.608;2023-09-07T02:31:46;97213.88;;;18.32;100.00
70254;BME280;57649;42.968;1.608;2023-09-07T02:34:11;97225.19;;;18.22;100.00
70254;BME280;57649;42.968;1.608;2023-09-07T02:36:36;97229.25;;;18.13;100.00
70254;BME280;57649;42.968;1.608;2023-09-07T02:39:02;97231.19;;;18.06;100.00
70254;BME280;57649;42.968;1.608;2023-09-07T02:41:31;97228.91;;;18.03;100.00
70254;BME280;57649;42.968;1.608;2023-09-07T02:43:56;97224.72;;;18.07;100.00
70254;BME280;57649;42.968;1.608;2023-09-07T02:46:22;97219.34;;;18.00;100.00
70254;BME280;57649;42.968;1.608;2023-09-07T02:48:47;97222.56;;;18.16;100.00
70254;BME280;57649;42.968;1.608;2023-09-07T02:51:13;97225.06;;;18.17;100.00
70254;BME280;57649;42.968;1.608;2023-09-07T02:53:39;97227.78;;;18.17;98.00
70254;BME280;57649;42.968;1.608;2023-09-07T02:56:04;97227.66;;;18.31;96.12
70254;BME280;57649;42.968;1.608;2023-09-07T02:58:30;97230.06;;;18.39;96.61
70254;BME280;57649;42.968;1.608;2023-09-07T03:00:56;97227.13;;;18.40;96.71
70254;BME280;57649;42.968;1.608;2023-09-07T03:03:21;97230.78;;;18.27;98.15
70254;BME280;57649;42.968;1.608;2023-09-07T03:05:47;97229.75;;;18.28;99.67
70254;BME280;57649;42.968;1.608;2023-09-07T03:08:12;97221.41;;;18.30;99.49
70254;BME280;57649;42.968;1.608;2023-09-07T03:10:38;97221.56;;;18.35;95.08
70254;BME280;57649;42.968;1.608;2023-09-07T03:13:05;97223.22;;;18.36;94.51
70254;BME280;57649;42.968;1.608;2023-09-07T03:15:31;97222.56;;;18.41;94.93
70254;BME280;57649;42.968;1.608;2023-09-07T03:17:56;97219.78;;;18.47;96.63
70254;BME280;57649;42.968;1.608;2023-09-07T03:20:22;97217.41;;;18.33;99.81
70254;BME280;57649;42.968;1.608;2023-09-07T03:22:48;97221.78;;;18.08;99.04
70254;BME280;57649;42.968;1.608;2023-09-07T03:25:13;97228.41;;;18.13;99.18
70254;BME280;57649;42.968;1.608;2023-09-07T03:27:39;97226.81;;;18.05;100.00
70254;BME280;57649;42.968;1.608;2023-09-07T03:30:05;97234.13;;;18.04;100.00
70254;BME280;57649;42.968;1.608;2023-09-07T03:32:31;97229.56;;;17.98;100.00
70254;BME280;57649;42.968;1.608;2023-09-07T03:35:02;97226.06;;;17.91;100.00
70254;BME280;57649;42.968;1.608;2023-09-07T03:37:28;97234.06;;;17.79;100.00
70254;BME280;57649;42.968;1.608;2023-09-07T03:39:55;97236.34;;;17.82;100.00
70254;BME280;57649;42.968;1.608;2023-09-07T03:42:22;97229.84;;;17.90;100.00
70254;BME280;57649;42.968;1.608;2023-09-07T03:44:47;97237.63;;;17.73;100.00
70254;BME280;57649;42.968;1.608;2023-09-07T03:47:13;97235.56;;;17.68;100.00
70254;BME280;57649;42.968;1.608;2023-09-07T03:49:39;97229.34;;;17.68;100.00
70254;BME280;57649;42.968;1.608;2023-09-07T03:52:05;97235.94;;;17.79;100.00
70254;BME280;57649;42.968;1.608;2023-09-07T03:54:31;97229.78;;;17.97;100.00
70254;BME280;57649;42.968;1.608;2023-09-07T03:56:57;97227.78;;;17.85;100.00
70254;BME280;57649;42.968;1.608;2023-09-07T03:59:22;97231.72;;;17.89;100.00
70254;BME280;57649;42.968;1.608;2023-09-07T04:01:48;97229.66;;;17.85;100.00
70254;BME280;57649;42.968;1.608;2023-09-07T04:04:14;97223.13;;;17.61;100.00
70254;BME280;57649;42.968;1.608;2023-09-07T04:06:40;97240.59;;;17.65;100.00
70254;BME280;57649;42.968;1.608;2023-09-07T04:09:05;97236.25;;;17.64;100.00
70254;BME280;57649;42.968;1.608;2023-09-07T04:11:30;97233.84;;;17.81;100.00
70254;BME280;57649;42.968;1.608;2023-09-07T04:13:56;97229.66;;;17.78;100.00
70254;BME280;57649;42.968;1.608;2023-09-07T04:16:21;97220.91;;;17.89;100.00
70254;BME280;57649;42.968;1.608;2023-09-07T04:18:47;97228.34;;;17.94;100.00
70254;BME280;57649;42.968;1.608;2023-09-07T04:21:12;97220.69;;;17.84;100.00
70254;BME280;57649;42.968;1.608;2023-09-07T04:23:37;97224.38;;;17.97;100.00
70254;BME280;57649;42.968;1.608;2023-09-07T04:26:11;97224.72;;;17.75;100.00
70254;BME280;57649;42.968;1.608;2023-09-07T04:28:38;97222.16;;;17.80;100.00
70254;BME280;57649;42.968;1.608;2023-09-07T04:31:04;97225.06;;;17.85;100.00
70254;BME280;57649;42.968;1.608;2023-09-07T04:33:31;97215.09;;;17.86;100.00
70254;BME280;57649;42.968;1.608;2023-09-07T04:35:56;97225.84;;;17.93;100.00
70254;BME280;57649;42.968;1.608;2023-09-07T04:38:22;97220.78;;;18.03;100.00
70254;BME280;57649;42.968;1.608;2023-09-07T04:40:47;97218.66;;;18.12;100.00
70254;BME280;57649;42.968;1.608;2023-09-07T04:43:13;97218.09;;;18.03;100.00
70254;BME280;57649;42.968;1.608;2023-09-07T04:45:48;97215.69;;;18.13;100.00
70254;BME280;57649;42.968;1.608;2023-09-07T04:48:13;97213.22;;;18.12;100.00
70254;BME280;57649;42.968;1.608;2023-09-07T04:50:38;97214.88;;;18.13;100.00
70254;BME280;57649;42.968;1.608;2023-09-07T04:53:04;97223.13;;;18.24;100.00
70254;BME280;57649;42.968;1.608;2023-09-07T04:55:29;97225.53;;;18.33;100.00
70254;BME280;57649;42.968;1.608;2023-09-07T04:57:54;97222.88;;;18.26;100.00
70254;BME280;57649;42.968;1.608;2023-09-07T05:00:20;97214.75;;;18.26;100.00
70254;BME280;57649;42.968;1.608;2023-09-07T05:02:45;97222.44;;;18.29;100.00
70254;BME280;57649;42.968;1.608;2023-09-07T05:05:12;97217.16;;;18.16;100.00
70254;BME280;57649;42.968;1.608;2023-09-07T05:07:37;97215.03;;;18.18;100.00
70254;BME280;57649;42.968;1.608;2023-09-07T05:10:03;97228.56;;;18.24;100.00
70254;BME280;57649;42.968;1.608;2023-09-07T05:12:28;97216.44;;;18.27;100.00
70254;BME280;57649;42.968;1.608;2023-09-07T05:14:54;97222.84;;;18.33;100.00
70254;BME280;57649;42.968;1.608;2023-09-07T05:17:20;97227.44;;;18.32;100.00
70254;BME280;57649;42.968;1.608;2023-09-07T05:19:45;97227.13;;;18.40;100.00
70254;BME280;57649;42.968;1.608;2023-09-07T05:22:10;97220.91;;;18.40;100.00
70254;BME280;57649;42.968;1.608;2023-09-07T05:24:38;97224.38;;;18.47;100.00
70254;BME280;57649;42.968;1.608;2023-09-07T05:27:04;97216.41;;;18.52;100.00
70254;BME280;57649;42.968;1.608;2023-09-07T05:29:30;97215.81;;;18.50;100.00
70254;BME280;57649;42.968;1.608;2023-09-07T05:31:55;97227.41;;;18.57;100.00
70254;BME280;57649;42.968;1.608;2023-09-07T05:34:21;97224.84;;;18.62;100.00
70254;BME280;57649;42.968;1.608;2023-09-07T05:36:48;97225.22;;;18.66;100.00
70254;BME280;57649;42.968;1.608;2023-09-07T05:39:13;97233.97;;;18.68;100.00
70254;BME280;57649;42.968;1.608;2023-09-07T05:41:38;97223.28;;;18.73;100.00
70254;BME280;57649;42.968;1.608;2023-09-07T05:44:04;97232.59;;;18.84;100.00
70254;BME280;57649;42.968;1.608;2023-09-07T05:46:29;97230.75;;;18.78;100.00
70254;BME280;57649;42.968;1.608;2023-09-07T05:48:55;97239.97;;;18.95;100.00
70254;BME280;57649;42.968;1.608;2023-09-07T05:51:20;97231.16;;;18.81;100.00
70254;BME280;57649;42.968;1.608;2023-09-07T05:53:45;97243.66;;;18.82;100.00
70254;BME280;57649;42.968;1.608;2023-09-07T05:56:11;97243.03;;;18.80;100.00
70254;BME280;57649;42.968;1.608;2023-09-07T05:58:36;97250.41;;;18.73;100.00
70254;BME280;57649;42.968;1.608;2023-09-07T06:01:02;97246.69;;;18.67;100.00
70254;BME280;57649;42.968;1.608;2023-09-07T06:03:27;97242.63;;;18.58;100.00
70254;BME280;57649;42.968;1.608;2023-09-07T06:05:53;97239.00;;;18.64;100.00
70254;BME280;57649;42.968;1.608;2023-09-07T06:08:18;97238.47;;;18.56;100.00
70254;BME280;57649;42.968;1.608;2023-09-07T06:10:44;97246.09;;;18.65;100.00
70254;BME280;57649;42.968;1.608;2023-09-07T06:13:09;97234.94;;;18.74;100.00
70254;BME280;57649;42.968;1.608;2023-09-07T06:15:34;97234.34;;;18.72;100.00
70254;BME280;57649;42.968;1.608;2023-09-07T06:18:00;97229.88;;;18.84;100.00
70254;BME280;57649;42.968;1.608;2023-09-07T06:20:25;97232.81;;;19.01;100.00
70254;BME280;57649;42.968;1.608;2023-09-07T06:22:51;97231.16;;;19.00;100.00
70254;BME280;57649;42.968;1.608;2023-09-07T06:25:16;97223.69;;;19.14;100.00
70254;BME280;57649;42.968;1.608;2023-09-07T06:27:42;97223.16;;;19.23;100.00
70254;BME280;57649;42.968;1.608;2023-09-07T06:30:07;97227.72;;;19.41;100.00
70254;BME280;57649;42.968;1.608;2023-09-07T06:32:33;97224.78;;;19.43;100.00
70254;BME280;57649;42.968;1.608;2023-09-07T06:34:58;97226.97;;;19.53;100.00
70254;BME280;57649;42.968;1.608;2023-09-07T06:37:24;97228.00;;;19.52;100.00
70254;BME280;57649;42.968;1.608;2023-09-07T06:39:50;97224.03;;;19.54;100.00
70254;BME280;57649;42.968;1.608;2023-09-07T06:42:15;97227.72;;;19.60;100.00
70254;BME280;57649;42.968;1.608;2023-09-07T06:44:41;97219.81;;;19.70;100.00
70254;BME280;57649;42.968;1.608;2023-09-07T06:47:06;97230.28;;;19.85;100.00
70254;BME280;57649;42.968;1.608;2023-09-07T06:49:32;97231.59;;;19.94;100.00
70254;BME280;57649;42.968;1.608;2023-09-07T06:51:57;97233.66;;;19.99;100.00
70254;BME280;57649;42.968;1.608;2023-09-07T06:54:23;97225.16;;;20.07;100.00
70254;BME280;57649;42.968;1.608;2023-09-07T06:56:48;97225.06;;;20.26;100.00
70254;BME280;57649;42.968;1.608;2023-09-07T06:59:14;97229.31;;;20.22;100.00
70254;BME280;57649;42.968;1.608;2023-09-07T07:01:39;97228.84;;;20.25;100.00
70254;BME280;57649;42.968;1.608;2023-09-07T07:04:05;97232.75;;;20.29;100.00
70254;BME280;57649;42.968;1.608;2023-09-07T07:06:31;97220.56;;;20.19;100.00
70254;BME280;57649;42.968;1.608;2023-09-07T07:08:57;97223.41;;;20.25;100.00
70254;BME280;57649;42.968;1.608;2023-09-07T07:11:22;97230.16;;;20.34;100.00
70254;BME280;57649;42.968;1.608;2023-09-07T07:13:48;97217.88;;;20.43;100.00
70254;BME280;57649;42.968;1.608;2023-09-07T07:16:13;97233.81;;;20.39;100.00
70254;BME280;57649;42.968;1.608;2023-09-07T07:18:39;97227.19;;;20.47;100.00
70254;BME280;57649;42.968;1.608;2023-09-07T07:21:05;97224.31;;;20.61;100.00
70254;BME280;57649;42.968;1.608;2023-09-07T07:23:30;97240.38;;;20.74;98.99
70254;BME280;57649;42.968;1.608;2023-09-07T07:25:56;97228.88;;;20.84;98.80
70254;BME280;57649;42.968;1.608;2023-09-07T07:28:21;97223.69;;;20.94;97.51
70254;BME280;57649;42.968;1.608;2023-09-07T07:30:47;97236.91;;;21.02;96.31
70254;BME280;57649;42.968;1.608;2023-09-07T07:33:13;97240.78;;;21.06;96.85
70254;BME280;57649;42.968;1.608;2023-09-07T07:35:39;97238.75;;;21.25;95.98
70254;BME280;57649;42.968;1.608;2023-09-07T07:38:05;97246.06;;;21.37;95.29
70254;BME280;57649;42.968;1.608;2023-09-07T07:40:31;97249.59;;;21.37;95.34
70254;BME280;57649;42.968;1.608;2023-09-07T07:42:57;97245.72;;;21.33;97.70
70254;BME280;57649;42.968;1.608;2023-09-07T07:45:22;97236.84;;;21.38;97.31
70254;BME280;57649;42.968;1.608;2023-09-07T07:47:48;97240.84;;;21.35;98.65
70254;BME280;57649;42.968;1.608;2023-09-07T07:50:14;97243.09;;;21.38;98.99
70254;BME280;57649;42.968;1.608;2023-09-07T07:52:39;97241.53;;;21.42;98.84
70254;BME280;57649;42.968;1.608;2023-09-07T07:55:06;97245.78;;;21.62;97.90
70254;BME280;57649;42.968;1.608;2023-09-07T07:57:32;97246.66;;;21.79;97.62
70254;BME280;57649;42.968;1.608;2023-09-07T07:59:57;97246.06;;;21.77;96.24
70254;BME280;57649;42.968;1.608;2023-09-07T08:02:23;97246.28;;;21.87;95.86
70254;BME280;57649;42.968;1.608;2023-09-07T08:04:48;97254.19;;;21.89;97.16
70254;BME280;57649;42.968;1.608;2023-09-07T08:07:13;97248.44;;;22.02;96.27
70254;BME280;57649;42.968;1.608;2023-09-07T08:09:39;97253.66;;;22.21;95.57
70254;BME280;57649;42.968;1.608;2023-09-07T08:12:05;97253.44;;;22.39;92.61
70254;BME280;57649;42.968;1.608;2023-09-07T08:14:31;97255.84;;;22.36;88.90
70254;BME280;57649;42.968;1.608;2023-09-07T08:16:57;97262.13;;;22.36;89.06
70254;BME280;57649;42.968;1.608;2023-09-07T08:19:22;97256.28;;;22.27;89.75
70254;BME280;57649;42.968;1.608;2023-09-07T08:21:48;97251.53;;;22.74;86.17
70254;BME280;57649;42.968;1.608;2023-09-07T08:24:13;97262.56;;;23.18;84.17
70254;BME280;57649;42.968;1.608;2023-09-07T08:26:39;97258.94;;;23.56;80.26
70254;BME280;57649;42.968;1.608;2023-09-07T08:29:05;97252.72;;;24.10;78.09
70254;BME280;57649;42.968;1.608;2023-09-07T08:31:34;97246.94;;;24.39;75.97
70254;BME280;57649;42.968;1.608;2023-09-07T08:34:04;97257.22;;;24.54;73.14
70254;BME280;57649;42.968;1.608;2023-09-07T08:36:30;97260.88;;;24.65;72.12
70254;BME280;57649;42.968;1.608;2023-09-07T08:39:03;97263.50;;;24.54;72.70
70254;BME280;57649;42.968;1.608;2023-09-07T08:41:44;97267.72;;;24.67;72.54
70254;BME280;57649;42.968;1.608;2023-09-07T08:44:11;97266.00;;;24.56;73.50
70254;BME280;57649;42.968;1.608;2023-09-07T08:46:37;97260.69;;;24.76;73.15
70254;BME280;57649;42.968;1.608;2023-09-07T08:49:03;97261.00;;;24.85;72.39
70254;BME280;57649;42.968;1.608;2023-09-07T08:51:30;97269.16;;;25.17;71.29
70254;BME280;57649;42.968;1.608;2023-09-07T08:53:57;97259.41;;;25.32;70.49
70254;BME280;57649;42.968;1.608;2023-09-07T08:56:22;97265.78;;;25.53;69.99
70254;BME280;57649;42.968;1.608;2023-09-07T08:58:48;97269.81;;;25.35;70.88
70254;BME280;57649;42.968;1.608;2023-09-07T09:01:19;97266.63;;;25.53;69.20
70254;BME280;57649;42.968;1.608;2023-09-07T09:03:48;97274.28;;;25.57;69.01
70254;BME280;57649;42.968;1.608;2023-09-07T09:06:14;97272.69;;;25.66;69.04
70254;BME280;57649;42.968;1.608;2023-09-07T09:08:45;97256.91;;;25.99;67.93
70254;BME280;57649;42.968;1.608;2023-09-07T09:11:11;97263.75;;;26.06;67.26
70254;BME280;57649;42.968;1.608;2023-09-07T09:13:39;97263.28;;;26.25;67.07
70254;BME280;57649;42.968;1.608;2023-09-07T09:16:05;97267.94;;;26.29;66.85
70254;BME280;57649;42.968;1.608;2023-09-07T09:18:30;97262.47;;;26.40;66.55
70254;BME280;57649;42.968;1.608;2023-09-07T09:20:56;97268.22;;;26.74;65.39
70254;BME280;57649;42.968;1.608;2023-09-07T09:23:24;97264.34;;;27.01;64.63
70254;BME280;57649;42.968;1.608;2023-09-07T09:25:50;97261.00;;;27.19;64.36
70254;BME280;57649;42.968;1.608;2023-09-07T09:28:16;97262.19;;;26.87;65.54
70254;BME280;57649;42.968;1.608;2023-09-07T09:30:42;97261.81;;;27.20;65.10
70254;BME280;57649;42.968;1.608;2023-09-07T09:33:10;97262.13;;;27.13;65.50
70254;BME280;57649;42.968;1.608;2023-09-07T09:35:37;97266.50;;;27.24;65.35
70254;BME280;57649;42.968;1.608;2023-09-07T09:38:03;97255.78;;;27.13;65.98
70254;BME280;57649;42.968;1.608;2023-09-07T09:40:30;97262.13;;;27.18;65.56
70254;BME280;57649;42.968;1.608;2023-09-07T09:42:57;97259.88;;;27.46;65.12
70254;BME280;57649;42.968;1.608;2023-09-07T09:45:23;97251.25;;;27.63;64.80
70254;BME280;57649;42.968;1.608;2023-09-07T09:47:53;97262.22;;;27.73;63.88
70254;BME280;57649;42.968;1.608;2023-09-07T09:50:21;97249.47;;;27.88;63.83
70254;BME280;57649;42.968;1.608;2023-09-07T09:52:48;97238.47;;;27.93;63.49
70254;BME280;57649;42.968;1.608;2023-09-07T09:55:13;97242.53;;;28.06;62.73
70254;BME280;57649;42.968;1.608;2023-09-07T09:57:41;97242.22;;;28.12;62.21
70254;BME280;57649;42.968;1.608;2023-09-07T10:00:07;97247.25;;;28.39;61.38
70254;BME280;57649;42.968;1.608;2023-09-07T10:03:14;97242.41;;;28.60;60.50
70254;BME280;57649;42.968;1.608;2023-09-07T10:05:46;97234.75;;;28.57;60.06
70254;BME280;57649;42.968;1.608;2023-09-07T10:08:16;97244.41;;;28.84;58.46
70254;BME280;57649;42.968;1.608;2023-09-07T10:10:43;97244.19;;;28.75;58.17
70254;BME280;57649;42.968;1.608;2023-09-07T10:13:09;97249.44;;;29.01;57.13
70254;BME280;57649;42.968;1.608;2023-09-07T10:15:34;97241.13;;;29.06;55.46
70254;BME280;57649;42.968;1.608;2023-09-07T10:20:54;97246.78;;;28.96;55.29
70254;BME280;57649;42.968;1.608;2023-09-07T10:23:22;97240.84;;;29.08;55.16
70254;BME280;57649;42.968;1.608;2023-09-07T10:25:52;97242.66;;;28.93;55.05
70254;BME280;57649;42.968;1.608;2023-09-07T10:28:22;97238.44;;;28.72;55.35
70254;BME280;57649;42.968;1.608;2023-09-07T10:31:02;97241.78;;;28.69;55.11
70254;BME280;57649;42.968;1.608;2023-09-07T10:33:34;97234.34;;;28.98;54.41
70254;BME280;57649;42.968;1.608;2023-09-07T10:36:01;97236.59;;;29.21;53.50
70254;BME280;57649;42.968;1.608;2023-09-07T10:38:28;97238.78;;;29.48;52.04
70254;BME280;57649;42.968;1.608;2023-09-07T10:40:56;97236.75;;;29.53;50.62
70254;BME280;57649;42.968;1.608;2023-09-07T10:43:31;97236.59;;;29.45;50.56
70254;BME280;57649;42.968;1.608;2023-09-07T10:45:58;97238.59;;;29.39;50.40
70254;BME280;57649;42.968;1.608;2023-09-07T10:48:25;97233.03;;;29.20;50.17
70254;BME280;57649;42.968;1.608;2023-09-07T10:50:51;97232.56;;;29.37;50.26
70254;BME280;57649;42.968;1.608;2023-09-07T10:53:31;97235.72;;;29.25;49.70
70254;BME280;57649;42.968;1.608;2023-09-07T10:55:59;97231.03;;;29.50;49.12
70254;BME280;57649;42.968;1.608;2023-09-07T10:58:30;97238.09;;;29.56;48.04
70254;BME280;57649;42.968;1.608;2023-09-07T11:00:56;97235.78;;;29.44;47.53
70254;BME280;57649;42.968;1.608;2023-09-07T11:03:22;97229.34;;;29.73;47.50
70254;BME280;57649;42.968;1.608;2023-09-07T11:05:50;97219.53;;;29.86;47.32
70254;BME280;57649;42.968;1.608;2023-09-07T11:08:17;97216.63;;;29.77;47.36
70254;BME280;57649;42.968;1.608;2023-09-07T11:10:43;97215.59;;;29.92;46.32
70254;BME280;57649;42.968;1.608;2023-09-07T11:13:09;97221.03;;;29.54;46.52
70254;BME280;57649;42.968;1.608;2023-09-07T11:15:35;97221.03;;;29.97;45.31
70254;BME280;57649;42.968;1.608;2023-09-07T11:18:05;97208.78;;;30.03;44.26
70254;BME280;57649;42.968;1.608;2023-09-07T11:20:31;97211.97;;;30.29;43.74
70254;BME280;57649;42.968;1.608;2023-09-07T11:22:57;97212.06;;;30.24;42.80
70254;BME280;57649;42.968;1.608;2023-09-07T11:25:22;97215.47;;;30.35;42.71
70254;BME280;57649;42.968;1.608;2023-09-07T11:27:48;97213.88;;;30.34;43.05
70254;BME280;57649;42.968;1.608;2023-09-07T11:30:13;97211.63;;;30.36;42.68
70254;BME280;57649;42.968;1.608;2023-09-07T11:32:38;97212.66;;;30.21;42.70
70254;BME280;57649;42.968;1.608;2023-09-07T11:35:05;97210.03;;;30.30;42.18
70254;BME280;57649;42.968;1.608;2023-09-07T11:37:33;97214.09;;;30.51;42.37
70254;BME280;57649;42.968;1.608;2023-09-07T11:40:00;97211.47;;;30.08;41.43
70254;BME280;57649;42.968;1.608;2023-09-07T11:42:26;97207.81;;;30.13;41.27
70254;BME280;57649;42.968;1.608;2023-09-07T11:44:51;97201.75;;;30.30;40.78
70254;BME280;57649;42.968;1.608;2023-09-07T11:47:16;97210.16;;;30.58;40.60
70254;BME280;57649;42.968;1.608;2023-09-07T11:49:42;97200.84;;;30.54;40.62
70254;BME280;57649;42.968;1.608;2023-09-07T11:52:07;97204.75;;;30.66;39.82
70254;BME280;57649;42.968;1.608;2023-09-07T11:54:33;97206.69;;;30.33;40.76
70254;BME280;57649;42.968;1.608;2023-09-07T11:56:58;97204.78;;;30.47;41.18
70254;BME280;57649;42.968;1.608;2023-09-07T11:59:23;97208.28;;;30.53;40.50
70254;BME280;57649;42.968;1.608;2023-09-07T12:01:49;97210.06;;;30.63;40.51
70254;BME280;57649;42.968;1.608;2023-09-07T12:04:14;97198.81;;;30.73;39.95
70254;BME280;57649;42.968;1.608;2023-09-07T12:06:40;97190.41;;;30.64;39.78
70254;BME280;57649;42.968;1.608;2023-09-07T12:09:06;97200.63;;;30.50;41.62
70254;BME280;57649;42.968;1.608;2023-09-07T12:11:33;97198.16;;;30.29;40.32
70254;BME280;57649;42.968;1.608;2023-09-07T12:13:59;97201.88;;;30.58;39.98
70254;BME280;57649;42.968;1.608;2023-09-07T12:16:28;97198.19;;;30.62;40.95
70254;BME280;57649;42.968;1.608;2023-09-07T12:18:53;97191.34;;;30.60;40.73
70254;BME280;57649;42.968;1.608;2023-09-07T12:21:19;97189.38;;;30.60;40.76
70254;BME280;57649;42.968;1.608;2023-09-07T12:23:45;97187.63;;;30.50;39.51
70254;BME280;57649;42.968;1.608;2023-09-07T12:26:14;97191.50;;;30.49;40.39
70254;BME280;57649;42.968;1.608;2023-09-07T12:28:41;97187.00;;;31.00;39.28
70254;BME280;57649;42.968;1.608;2023-09-07T12:31:07;97184.13;;;30.92;40.02
70254;BME280;57649;42.968;1.608;2023-09-07T12:33:32;97185.84;;;30.87;39.23
70254;BME280;57649;42.968;1.608;2023-09-07T12:35:58;97189.75;;;30.86;39.32
70254;BME280;57649;42.968;1.608;2023-09-07T12:38:25;97186.63;;;31.07;40.21
70254;BME280;57649;42.968;1.608;2023-09-07T12:40:53;97180.88;;;31.03;40.54
70254;BME280;57649;42.968;1.608;2023-09-07T12:43:19;97177.59;;;31.15;40.69
70254;BME280;57649;42.968;1.608;2023-09-07T12:45:46;97183.66;;;31.03;40.70
70254;BME280;57649;42.968;1.608;2023-09-07T12:48:11;97179.03;;;30.99;41.31
70254;BME280;57649;42.968;1.608;2023-09-07T12:50:36;97173.09;;;31.47;40.36
70254;BME280;57649;42.968;1.608;2023-09-07T12:53:02;97174.94;;;31.10;40.37